Time;durP1;ratioP1;P1;durP2;ratioP2;P2;SDS_P1;SDS_P2;PMS_P1;PMS_P2;Temp;Humidity;BMP_temperature;BMP_pressure;BME280_temperature;BME280_humidity;BME280_pressure;Samples;Min_cycle;Max_cycle;Signal;HPM_P1;HPM_P2
2020/12/24 00:00:50;;;;;;;;;;;18.30;46.90;;;;;;491621;240;1065;-53
2020/12/24 00:02:51;;;;;;;;;;;18.30;46.90;;;;;;491603;240;1219;-53
2020/12/24 00:04:53;;;;;;;;;;;18.30;47.00;;;;;;491659;240;1199;-53
2020/12/24 00:06:54;;;;;;;;;;;18.30;47.00;;;;;;491583;240;1188;-53
2020/12/24 00:08:55;;;;;;;;;;;18.30;47.00;;;;;;491602;240;2128;-53
2020/12/24 00:10:56;;;;;;;;;;;18.20;47.00;;;;;;491937;240;1022;-53
2020/12/24 00:12:58;;;;;;;;;;;18.20;47.00;;;;;;491598;240;1308;-53
2020/12/24 00:14:59;;;;;;;;;;;18.30;47.10;;;;;;491628;240;1063;-52
2020/12/24 00:17:00;;;;;;;;;;;18.20;45.80;;;;;;491729;240;1063;-53
2020/12/24 00:19:01;;;;;;;;;;;18.20;47.10;;;;;;491697;240;1090;-53
2020/12/24 00:21:03;;;;;;;;;;;18.20;47.10;;;;;;491620;240;1032;-52
2020/12/24 00:23:04;;;;;;;;;;;18.20;47.20;;;;;;491875;240;1022;-53
2020/12/24 00:25:05;;;;;;;;;;;18.20;47.20;;;;;;491869;240;1052;-53
2020/12/24 00:27:06;;;;;;;;;;;18.20;47.20;;;;;;491709;240;1021;-53
2020/12/24 00:29:09;;;;;;;;;;;18.20;47.20;;;;;;491633;240;2187;-53
2020/12/24 00:31:09;;;;;;;;;;;18.10;47.20;;;;;;491686;241;2100;-53
2020/12/24 00:33:10;;;;;;;;;;;18.10;47.30;;;;;;491585;240;1094;-53
2020/12/24 00:35:12;;;;;;;;;;;18.10;47.30;;;;;;491875;240;1063;-53
2020/12/24 00:37:13;;;;;;;;;;;18.10;47.30;;;;;;491580;240;964;-53
2020/12/24 00:39:14;;;;;;;;;;;18.10;47.30;;;;;;491618;240;1032;-53
2020/12/24 00:41:15;;;;;;;;;;;18.10;47.30;;;;;;491701;240;1074;-53
2020/12/24 00:43:17;;;;;;;;;;;18.10;47.40;;;;;;491905;240;1184;-52
2020/12/24 00:45:18;;;;;;;;;;;18.10;47.40;;;;;;491840;240;1042;-53
2020/12/24 00:47:19;;;;;;;;;;;18.10;47.40;;;;;;491661;240;1057;-53
2020/12/24 00:49:21;;;;;;;;;;;18.10;47.40;;;;;;491714;240;2144;-53
2020/12/24 00:51:22;;;;;;;;;;;18.10;47.40;;;;;;491645;240;1030;-53
2020/12/24 00:53:23;;;;;;;;;;;18.00;47.40;;;;;;491912;240;1067;-53
2020/12/24 00:55:25;;;;;;;;;;;18.00;47.40;;;;;;491559;240;1068;-53
2020/12/24 00:57:26;;;;;;;;;;;18.00;47.40;;;;;;491625;240;1215;-52
2020/12/24 00:59:27;;;;;;;;;;;18.00;47.40;;;;;;491669;240;1197;-53
2020/12/24 01:01:28;;;;;;;;;;;18.00;47.50;;;;;;491833;240;1241;-53
2020/12/24 01:03:29;;;;;;;;;;;18.00;47.50;;;;;;491577;240;1242;-53
2020/12/24 01:05:33;;;;;;;;;;;18.00;47.50;;;;;;491606;240;1059;-53
2020/12/24 01:07:32;;;;;;;;;;;18.00;47.50;;;;;;491753;241;1577;-53
2020/12/24 01:09:34;;;;;;;;;;;18.00;47.50;;;;;;491746;240;1124;-53
2020/12/24 01:11:35;;;;;;;;;;;18.00;47.50;;;;;;491620;240;1385;-53
2020/12/24 01:13:36;;;;;;;;;;;18.00;47.60;;;;;;491669;240;1182;-53
2020/12/24 01:15:37;;;;;;;;;;;18.00;47.60;;;;;;491574;240;1056;-53
2020/12/24 01:17:39;;;;;;;;;;;18.00;47.60;;;;;;491739;240;1055;-53
2020/12/24 01:19:40;;;;;;;;;;;17.90;47.60;;;;;;491557;240;1050;-53
2020/12/24 01:21:41;;;;;;;;;;;17.90;47.60;;;;;;491814;240;1270;-53
2020/12/24 01:23:42;;;;;;;;;;;17.90;47.60;;;;;;491840;240;1085;-53
2020/12/24 01:25:44;;;;;;;;;;;17.90;47.60;;;;;;491654;240;1079;-53
2020/12/24 01:27:45;;;;;;;;;;;17.90;47.60;;;;;;491767;240;2148;-53
2020/12/24 01:29:46;;;;;;;;;;;17.90;47.60;;;;;;491656;240;1121;-53
2020/12/24 01:31:48;;;;;;;;;;;17.90;46.40;;;;;;491493;240;1076;-53
2020/12/24 01:33:49;;;;;;;;;;;17.90;47.60;;;;;;491607;240;1182;-53
2020/12/24 01:35:50;;;;;;;;;;;17.90;47.60;;;;;;491686;240;1286;-53
2020/12/24 01:37:51;;;;;;;;;;;17.90;47.70;;;;;;491613;240;1356;-53
2020/12/24 01:39:53;;;;;;;;;;;17.90;47.70;;;;;;491870;240;1054;-53
2020/12/24 01:41:54;;;;;;;;;;;17.90;47.70;;;;;;491775;240;1042;-53
2020/12/24 01:43:55;;;;;;;;;;;17.90;47.70;;;;;;491742;240;1169;-53
2020/12/24 01:45:56;;;;;;;;;;;17.90;47.70;;;;;;491866;240;953;-53
2020/12/24 01:47:58;;;;;;;;;;;17.80;47.70;;;;;;491594;240;2184;-53
2020/12/24 01:49:59;;;;;;;;;;;17.80;47.70;;;;;;491535;240;1194;-52
2020/12/24 01:52:00;;;;;;;;;;;17.80;47.70;;;;;;491523;240;1052;-53
2020/12/24 01:54:03;;;;;;;;;;;17.80;47.70;;;;;;491860;240;1344;-53
2020/12/24 01:56:03;;;;;;;;;;;17.80;47.80;;;;;;491782;241;2388;-53
2020/12/24 01:58:04;;;;;;;;;;;17.80;47.70;;;;;;491773;240;1210;-53
2020/12/24 02:00:06;;;;;;;;;;;17.80;47.70;;;;;;491687;240;1183;-53
2020/12/24 02:02:07;;;;;;;;;;;17.90;47.60;;;;;;491655;240;1221;-53
2020/12/24 02:04:08;;;;;;;;;;;17.90;47.60;;;;;;491655;240;1243;-53
2020/12/24 02:06:09;;;;;;;;;;;17.90;47.50;;;;;;491629;240;1070;-52
2020/12/24 02:08:11;;;;;;;;;;;17.90;47.50;;;;;;491591;240;2192;-53
2020/12/24 02:10:12;;;;;;;;;;;18.00;47.50;;;;;;491636;240;1083;-53
2020/12/24 02:12:13;;;;;;;;;;;18.00;47.50;;;;;;491600;240;1313;-53
2020/12/24 02:14:16;;;;;;;;;;;18.00;47.50;;;;;;491904;240;1145;-53
2020/12/24 02:16:16;;;;;;;;;;;18.00;47.40;;;;;;491578;241;1718;-53
2020/12/24 02:18:17;;;;;;;;;;;18.10;47.50;;;;;;491700;240;1209;-53
2020/12/24 02:20:19;;;;;;;;;;;18.10;47.40;;;;;;491609;240;1026;-53
2020/12/24 02:22:20;;;;;;;;;;;18.10;47.40;;;;;;491645;240;2571;-53
2020/12/24 02:24:21;;;;;;;;;;;18.10;47.40;;;;;;491686;240;1046;-53
2020/12/24 02:26:23;;;;;;;;;;;18.10;47.30;;;;;;491893;240;1076;-53
2020/12/24 02:28:24;;;;;;;;;;;18.20;47.40;;;;;;491618;240;2120;-53
2020/12/24 02:30:25;;;;;;;;;;;18.20;47.30;;;;;;491650;240;1234;-53
2020/12/24 02:32:26;;;;;;;;;;;18.20;47.30;;;;;;491644;240;1084;-53
2020/12/24 02:34:28;;;;;;;;;;;18.20;47.20;;;;;;491789;240;1039;-53
2020/12/24 02:36:29;;;;;;;;;;;18.20;47.20;;;;;;491659;240;1257;-53
2020/12/24 02:38:30;;;;;;;;;;;18.30;47.20;;;;;;491719;240;1452;-53
2020/12/24 02:40:31;;;;;;;;;;;18.30;47.20;;;;;;491720;240;975;-53
2020/12/24 02:42:33;;;;;;;;;;;18.30;47.10;;;;;;491659;240;1094;-53
2020/12/24 02:44:34;;;;;;;;;;;18.30;47.10;;;;;;491622;240;1269;-53
2020/12/24 02:46:35;;;;;;;;;;;18.30;47.10;;;;;;491714;240;965;-53
2020/12/24 02:48:37;;;;;;;;;;;18.30;47.00;;;;;;491597;240;2184;-53
2020/12/24 02:50:38;;;;;;;;;;;18.40;47.10;;;;;;491566;240;1047;-53
2020/12/24 02:52:39;;;;;;;;;;;18.40;47.00;;;;;;491692;240;1332;-53
2020/12/24 02:54:40;;;;;;;;;;;18.40;45.60;;;;;;491506;240;1215;-53
2020/12/24 02:56:42;;;;;;;;;;;18.40;46.90;;;;;;491509;240;1098;-53
2020/12/24 02:58:43;;;;;;;;;;;18.50;46.90;;;;;;491824;240;1050;-53
2020/12/24 03:00:44;;;;;;;;;;;18.50;46.90;;;;;;491572;240;1196;-53
2020/12/24 03:02:46;;;;;;;;;;;18.50;46.90;;;;;;491691;240;1107;-53
2020/12/24 03:04:47;;;;;;;;;;;18.50;46.80;;;;;;491681;240;1157;-53
2020/12/24 03:06:48;;;;;;;;;;;18.50;46.80;;;;;;491625;240;1137;-53
2020/12/24 03:08:50;;;;;;;;;;;18.50;46.80;;;;;;491661;240;2188;-53
2020/12/24 03:10:51;;;;;;;;;;;18.60;46.80;;;;;;491602;240;2200;-53
2020/12/24 03:12:52;;;;;;;;;;;18.60;46.80;;;;;;491648;240;1058;-53
2020/12/24 03:14:53;;;;;;;;;;;18.60;46.70;;;;;;491608;240;1254;-53
2020/12/24 03:16:55;;;;;;;;;;;18.60;46.70;;;;;;491634;240;992;-53
2020/12/24 03:18:56;;;;;;;;;;;18.60;46.70;;;;;;491691;240;967;-53
2020/12/24 03:20:57;;;;;;;;;;;18.60;46.60;;;;;;491879;240;1178;-53
2020/12/24 03:22:59;;;;;;;;;;;18.60;46.60;;;;;;491734;240;1133;-53
2020/12/24 03:25:00;;;;;;;;;;;18.60;46.60;;;;;;491695;240;1346;-52
2020/12/24 03:27:01;;;;;;;;;;;18.70;46.60;;;;;;491689;240;957;-53
2020/12/24 03:29:02;;;;;;;;;;;18.70;46.50;;;;;;491649;240;2192;-53
2020/12/24 03:31:04;;;;;;;;;;;18.70;46.50;;;;;;491563;240;1164;-53
2020/12/24 03:33:05;;;;;;;;;;;18.70;46.40;;;;;;491638;240;1115;-53
2020/12/24 03:35:06;;;;;;;;;;;18.70;46.40;;;;;;491613;240;1043;-53
2020/12/24 03:37:08;;;;;;;;;;;18.80;46.50;;;;;;491614;240;1236;-53
2020/12/24 03:39:09;;;;;;;;;;;18.80;46.40;;;;;;492010;240;1057;-53
2020/12/24 03:41:10;;;;;;;;;;;18.80;46.40;;;;;;491756;240;1054;-53
2020/12/24 03:43:12;;;;;;;;;;;18.80;45.10;;;;;;491682;240;1035;-53
2020/12/24 03:45:13;;;;;;;;;;;18.80;46.40;;;;;;491676;240;1197;-53
2020/12/24 03:47:14;;;;;;;;;;;18.80;46.40;;;;;;491706;240;1058;-53
2020/12/24 03:49:16;;;;;;;;;;;18.80;46.30;;;;;;491915;240;2136;-53
2020/12/24 03:51:17;;;;;;;;;;;18.80;46.30;;;;;;491660;240;1068;-53
2020/12/24 03:53:18;;;;;;;;;;;18.80;46.30;;;;;;491659;240;1068;-53
2020/12/24 03:55:19;;;;;;;;;;;18.90;46.30;;;;;;491751;240;1138;-53
2020/12/24 03:57:21;;;;;;;;;;;18.90;46.30;;;;;;491713;240;1033;-53
2020/12/24 03:59:22;;;;;;;;;;;18.90;46.20;;;;;;491609;240;1502;-53
2020/12/24 04:01:23;;;;;;;;;;;18.90;46.10;;;;;;491640;240;1244;-53
2020/12/24 04:03:24;;;;;;;;;;;18.90;46.20;;;;;;491741;240;956;-53
2020/12/24 04:05:26;;;;;;;;;;;18.90;46.20;;;;;;491757;240;1042;-53
2020/12/24 04:07:27;;;;;;;;;;;18.90;46.20;;;;;;491601;240;1219;-53
2020/12/24 04:09:28;;;;;;;;;;;19.00;46.20;;;;;;491586;240;2184;-53
2020/12/24 04:11:30;;;;;;;;;;;19.00;46.20;;;;;;491561;240;1271;-53
2020/12/24 04:13:31;;;;;;;;;;;19.00;46.20;;;;;;491715;240;1099;-53
2020/12/24 04:15:32;;;;;;;;;;;19.00;46.10;;;;;;491803;240;1289;-53
2020/12/24 04:17:33;;;;;;;;;;;19.00;46.10;;;;;;491585;240;1175;-54
2020/12/24 04:19:35;;;;;;;;;;;19.00;46.10;;;;;;491597;240;1071;-53
2020/12/24 04:21:36;;;;;;;;;;;19.00;46.00;;;;;;491504;240;1182;-53
2020/12/24 04:23:37;;;;;;;;;;;19.00;46.00;;;;;;491628;240;1207;-53
2020/12/24 04:25:39;;;;;;;;;;;19.00;46.00;;;;;;491703;240;1060;-53
2020/12/24 04:27:40;;;;;;;;;;;19.00;45.90;;;;;;491790;240;1025;-53
2020/12/24 04:29:41;;;;;;;;;;;19.10;44.50;;;;;;491629;240;2159;-53
2020/12/24 04:31:42;;;;;;;;;;;19.10;45.60;;;;;;491546;240;1184;-53
2020/12/24 04:33:44;;;;;;;;;;;19.20;45.50;;;;;;491738;240;1215;-53
2020/12/24 04:35:45;;;;;;;;;;;19.20;45.50;;;;;;491727;240;976;-54
2020/12/24 04:37:46;;;;;;;;;;;19.20;45.50;;;;;;491652;240;1099;-53
2020/12/24 04:39:47;;;;;;;;;;;19.20;45.60;;;;;;491559;240;1278;-53
2020/12/24 04:41:49;;;;;;;;;;;19.10;45.70;;;;;;491455;240;1091;-53
2020/12/24 04:43:50;;;;;;;;;;;19.10;45.80;;;;;;491562;240;1146;-53
2020/12/24 04:45:51;;;;;;;;;;;19.00;45.90;;;;;;491549;240;1259;-53
2020/12/24 04:47:53;;;;;;;;;;;19.00;46.00;;;;;;491728;240;1019;-53
2020/12/24 04:49:54;;;;;;;;;;;19.00;46.10;;;;;;491569;240;2153;-53
2020/12/24 04:51:55;;;;;;;;;;;18.90;46.10;;;;;;491592;240;1060;-53
2020/12/24 04:53:56;;;;;;;;;;;18.90;46.20;;;;;;491603;240;1220;-53
2020/12/24 04:55:58;;;;;;;;;;;18.90;46.30;;;;;;491725;240;993;-53
2020/12/24 04:57:59;;;;;;;;;;;18.90;46.30;;;;;;491676;240;1029;-52
2020/12/24 05:00:00;;;;;;;;;;;18.80;46.40;;;;;;491636;240;1069;-53
2020/12/24 05:02:02;;;;;;;;;;;18.80;46.40;;;;;;491582;240;1346;-53
2020/12/24 05:04:03;;;;;;;;;;;18.70;46.50;;;;;;491740;240;1013;-53
2020/12/24 05:06:04;;;;;;;;;;;18.70;46.60;;;;;;491699;240;1203;-53
2020/12/24 05:08:06;;;;;;;;;;;18.70;46.60;;;;;;491750;240;1021;-53
2020/12/24 05:10:07;;;;;;;;;;;18.70;46.70;;;;;;491556;240;2132;-53
2020/12/24 05:12:08;;;;;;;;;;;18.60;46.70;;;;;;491546;240;1312;-53
2020/12/24 05:14:09;;;;;;;;;;;18.60;46.80;;;;;;491625;240;1087;-53
2020/12/24 05:16:11;;;;;;;;;;;18.60;45.50;;;;;;491610;240;1176;-53
2020/12/24 05:18:12;;;;;;;;;;;18.50;46.90;;;;;;491686;240;1110;-53
2020/12/24 05:20:13;;;;;;;;;;;18.50;46.90;;;;;;491622;240;1028;-53
2020/12/24 05:22:14;;;;;;;;;;;18.50;45.70;;;;;;491787;240;1329;-53
2020/12/24 05:24:16;;;;;;;;;;;18.50;47.00;;;;;;491924;240;1060;-53
2020/12/24 05:26:17;;;;;;;;;;;18.50;47.10;;;;;;491625;240;1096;-53
2020/12/24 05:28:19;;;;;;;;;;;18.40;47.10;;;;;;491727;240;1069;-53
2020/12/24 05:30:20;;;;;;;;;;;18.40;47.10;;;;;;491687;240;2148;-53
2020/12/24 05:32:21;;;;;;;;;;;18.40;47.20;;;;;;491679;240;1124;-53
2020/12/24 05:34:23;;;;;;;;;;;18.40;45.90;;;;;;491863;240;1025;-53
2020/12/24 05:36:24;;;;;;;;;;;18.40;47.20;;;;;;491672;240;1231;-53
2020/12/24 05:38:25;;;;;;;;;;;18.40;47.20;;;;;;491770;240;1060;-53
2020/12/24 05:40:26;;;;;;;;;;;18.30;47.20;;;;;;491712;240;962;-53
2020/12/24 05:42:28;;;;;;;;;;;18.30;47.20;;;;;;491623;240;1058;-53
2020/12/24 05:44:29;;;;;;;;;;;18.30;47.30;;;;;;491637;240;993;-53
2020/12/24 05:46:30;;;;;;;;;;;18.30;47.30;;;;;;491909;240;1162;-53
2020/12/24 05:48:31;;;;;;;;;;;18.30;47.40;;;;;;491662;240;970;-53
2020/12/24 05:50:33;;;;;;;;;;;18.20;47.40;;;;;;491582;240;2137;-53
2020/12/24 05:52:34;;;;;;;;;;;18.20;46.10;;;;;;491663;240;1046;-53
2020/12/24 05:54:35;;;;;;;;;;;18.20;47.40;;;;;;491705;240;1047;-53
2020/12/24 05:56:37;;;;;;;;;;;18.20;47.50;;;;;;491588;240;1065;-53
2020/12/24 05:58:38;;;;;;;;;;;18.20;47.50;;;;;;491627;240;1016;-53
2020/12/24 06:00:39;;;;;;;;;;;18.20;47.50;;;;;;491817;240;1059;-53
2020/12/24 06:02:41;;;;;;;;;;;18.20;47.50;;;;;;491572;240;1356;-53
2020/12/24 06:04:42;;;;;;;;;;;18.10;47.50;;;;;;491951;240;1041;-53
2020/12/24 06:06:44;;;;;;;;;;;18.10;47.50;;;;;;491635;240;1070;-53
2020/12/24 06:08:45;;;;;;;;;;;18.10;47.60;;;;;;491843;240;1152;-53
2020/12/24 06:10:46;;;;;;;;;;;18.10;47.60;;;;;;491564;240;2193;-53
2020/12/24 06:12:47;;;;;;;;;;;18.10;47.60;;;;;;491719;240;1239;-53
2020/12/24 06:14:49;;;;;;;;;;;18.10;47.60;;;;;;491630;240;1068;-52
2020/12/24 06:16:50;;;;;;;;;;;18.10;47.70;;;;;;491601;240;1199;-53
2020/12/24 06:18:51;;;;;;;;;;;18.00;47.70;;;;;;491559;240;1193;-53
2020/12/24 06:20:53;;;;;;;;;;;18.00;47.70;;;;;;491626;240;990;-53
2020/12/24 06:22:54;;;;;;;;;;;18.00;47.70;;;;;;491633;240;1138;-53
2020/12/24 06:24:55;;;;;;;;;;;18.00;47.70;;;;;;491660;240;1061;-53
2020/12/24 06:26:57;;;;;;;;;;;18.00;46.40;;;;;;491603;240;965;-52
2020/12/24 06:28:58;;;;;;;;;;;18.00;47.70;;;;;;491733;240;1132;-53
2020/12/24 06:30:59;;;;;;;;;;;18.00;47.70;;;;;;491820;240;2117;-52
2020/12/24 06:33:00;;;;;;;;;;;18.00;47.70;;;;;;491709;240;1162;-53
2020/12/24 06:35:02;;;;;;;;;;;18.00;47.80;;;;;;491786;240;1007;-53
2020/12/24 06:37:03;;;;;;;;;;;17.90;47.70;;;;;;491624;240;1116;-53
2020/12/24 06:39:04;;;;;;;;;;;17.90;47.80;;;;;;491552;240;968;-53
2020/12/24 06:41:06;;;;;;;;;;;17.90;47.80;;;;;;491684;240;1188;-53
2020/12/24 06:43:07;;;;;;;;;;;17.90;47.80;;;;;;491584;240;1017;-53
2020/12/24 06:45:08;;;;;;;;;;;17.90;47.80;;;;;;491597;240;1022;-53
2020/12/24 06:47:09;;;;;;;;;;;17.90;47.80;;;;;;491662;240;1178;-53
2020/12/24 06:49:11;;;;;;;;;;;17.90;47.80;;;;;;491664;240;1149;-53
2020/12/24 06:51:13;;;;;;;;;;;17.90;47.80;;;;;;491547;240;2136;-53
2020/12/24 06:53:13;;;;;;;;;;;17.90;46.50;;;;;;491667;240;1828;-53
2020/12/24 06:55:15;;;;;;;;;;;17.90;47.80;;;;;;491688;240;1217;-52
2020/12/24 06:57:16;;;;;;;;;;;17.90;47.80;;;;;;491645;240;1040;-53
2020/12/24 06:59:17;;;;;;;;;;;17.90;47.80;;;;;;491502;240;1073;-52
2020/12/24 07:01:19;;;;;;;;;;;17.90;47.80;;;;;;491753;240;1095;-53
2020/12/24 07:03:20;;;;;;;;;;;17.90;47.90;;;;;;491565;240;1246;-53
2020/12/24 07:05:21;;;;;;;;;;;17.80;47.80;;;;;;491597;240;1073;-53
2020/12/24 07:07:23;;;;;;;;;;;17.80;47.80;;;;;;491556;240;968;-53
2020/12/24 07:09:24;;;;;;;;;;;17.80;47.80;;;;;;491516;240;1190;-53
2020/12/24 07:11:25;;;;;;;;;;;17.80;47.80;;;;;;491740;240;2149;-53
2020/12/24 07:13:26;;;;;;;;;;;17.90;47.80;;;;;;491526;240;1369;-53
2020/12/24 07:15:28;;;;;;;;;;;17.90;47.70;;;;;;491709;240;1069;-53
2020/12/24 07:17:29;;;;;;;;;;;17.90;47.70;;;;;;491589;240;2371;-53
2020/12/24 07:19:30;;;;;;;;;;;17.90;47.60;;;;;;491681;240;1096;-53
2020/12/24 07:21:31;;;;;;;;;;;18.00;47.60;;;;;;491526;240;1059;-53
2020/12/24 07:23:33;;;;;;;;;;;18.00;47.60;;;;;;491664;240;1210;-53
2020/12/24 07:25:34;;;;;;;;;;;18.00;47.50;;;;;;491472;240;1083;-53
2020/12/24 07:27:35;;;;;;;;;;;18.00;47.50;;;;;;491702;240;1086;-53
2020/12/24 07:29:37;;;;;;;;;;;18.00;47.40;;;;;;491665;240;1059;-53
2020/12/24 07:31:38;;;;;;;;;;;18.10;47.40;;;;;;491548;240;2108;-53
2020/12/24 07:33:39;;;;;;;;;;;18.10;47.30;;;;;;491601;240;1190;-53
2020/12/24 07:35:40;;;;;;;;;;;18.10;47.30;;;;;;491773;240;1207;-53
2020/12/24 07:37:42;;;;;;;;;;;18.10;47.20;;;;;;491590;240;1202;-53
2020/12/24 07:39:43;;;;;;;;;;;18.20;47.20;;;;;;491748;239;1180;-53
2020/12/24 07:41:44;;;;;;;;;;;18.20;47.20;;;;;;491657;240;1183;-53
2020/12/24 07:43:46;;;;;;;;;;;18.20;47.10;;;;;;491467;240;1303;-53
2020/12/24 07:45:47;;;;;;;;;;;18.20;47.10;;;;;;491577;240;1209;-53
2020/12/24 07:47:48;;;;;;;;;;;18.20;47.00;;;;;;491549;240;1182;-53
2020/12/24 07:49:49;;;;;;;;;;;18.20;47.00;;;;;;491601;240;2175;-53
2020/12/24 07:51:51;;;;;;;;;;;18.30;46.90;;;;;;491606;240;1035;-53
2020/12/24 07:53:52;;;;;;;;;;;18.30;46.90;;;;;;491519;240;1160;-53
2020/12/24 07:55:54;;;;;;;;;;;18.30;46.80;;;;;;491694;240;1245;-53
2020/12/24 07:57:55;;;;;;;;;;;18.30;46.80;;;;;;491554;241;1405;-53
2020/12/24 07:59:56;;;;;;;;;;;18.40;46.80;;;;;;491566;240;1045;-53
2020/12/24 08:01:57;;;;;;;;;;;18.40;46.80;;;;;;491668;240;1280;-53
2020/12/24 08:03:58;;;;;;;;;;;18.40;46.70;;;;;;491636;240;1358;-53
2020/12/24 08:06:00;;;;;;;;;;;18.40;46.70;;;;;;491526;240;1218;-53
2020/12/24 08:08:01;;;;;;;;;;;18.40;45.30;;;;;;491668;240;1291;-53
2020/12/24 08:10:02;;;;;;;;;;;18.40;46.60;;;;;;491582;240;2183;-53
2020/12/24 08:12:04;;;;;;;;;;;18.50;46.60;;;;;;491444;240;1334;-53
2020/12/24 08:14:05;;;;;;;;;;;18.50;46.60;;;;;;491504;240;1181;-53
2020/12/24 08:16:06;;;;;;;;;;;18.50;46.50;;;;;;491396;240;1208;-53
2020/12/24 08:18:07;;;;;;;;;;;18.50;46.40;;;;;;491645;240;1187;-54
2020/12/24 08:20:08;;;;;;;;;;;18.50;46.40;;;;;;491688;240;1030;-53
2020/12/24 08:22:10;;;;;;;;;;;18.60;46.40;;;;;;491496;240;1134;-53
2020/12/24 08:24:11;;;;;;;;;;;18.60;46.40;;;;;;491704;240;1049;-53
2020/12/24 08:26:12;;;;;;;;;;;18.60;46.30;;;;;;491524;240;1327;-53
2020/12/24 08:28:14;;;;;;;;;;;18.60;46.30;;;;;;491590;240;1059;-53
2020/12/24 08:30:15;;;;;;;;;;;18.60;46.30;;;;;;491610;240;2140;-53
2020/12/24 08:32:16;;;;;;;;;;;18.60;46.20;;;;;;491558;240;1183;-53
2020/12/24 08:34:17;;;;;;;;;;;18.60;46.20;;;;;;491768;240;1117;-53
2020/12/24 08:36:19;;;;;;;;;;;18.70;46.20;;;;;;491508;240;1454;-53
2020/12/24 08:38:20;;;;;;;;;;;18.70;44.90;;;;;;491545;240;1345;-53
2020/12/24 08:40:21;;;;;;;;;;;18.70;46.10;;;;;;491533;240;1187;-58
2020/12/24 08:42:23;;;;;;;;;;;18.70;46.10;;;;;;491590;240;1042;-54
2020/12/24 08:44:24;;;;;;;;;;;18.80;46.10;;;;;;491600;240;1107;-53
2020/12/24 08:46:25;;;;;;;;;;;18.80;46.00;;;;;;491562;240;1311;-53
2020/12/24 08:48:26;;;;;;;;;;;18.80;46.00;;;;;;491533;240;1166;-53
2020/12/24 08:50:28;;;;;;;;;;;18.80;46.00;;;;;;491738;240;2135;-53
2020/12/24 08:52:29;;;;;;;;;;;18.80;45.90;;;;;;491670;240;1247;-53
2020/12/24 08:54:31;;;;;;;;;;;18.80;45.90;;;;;;491737;240;1077;-53
2020/12/24 08:56:32;;;;;;;;;;;18.80;45.80;;;;;;491852;240;1033;-53
2020/12/24 08:58:33;;;;;;;;;;;18.80;45.80;;;;;;491524;240;1164;-53
2020/12/24 09:00:34;;;;;;;;;;;18.80;45.80;;;;;;491594;240;1168;-53
2020/12/24 09:02:36;;;;;;;;;;;18.90;45.80;;;;;;491503;240;1304;-53
2020/12/24 09:04:37;;;;;;;;;;;18.90;45.80;;;;;;491755;240;1130;-53
2020/12/24 09:06:38;;;;;;;;;;;18.90;45.80;;;;;;491536;240;1126;-53
2020/12/24 09:08:40;;;;;;;;;;;18.90;45.70;;;;;;491611;240;1394;-53
2020/12/24 09:10:41;;;;;;;;;;;18.90;45.70;;;;;;491544;240;2208;-53
2020/12/24 09:12:42;;;;;;;;;;;18.90;45.70;;;;;;491592;240;1338;-53
2020/12/24 09:14:43;;;;;;;;;;;18.90;45.70;;;;;;491612;240;1081;-53
2020/12/24 09:16:45;;;;;;;;;;;18.90;45.60;;;;;;491528;240;1651;-54
2020/12/24 09:18:46;;;;;;;;;;;19.00;45.70;;;;;;491568;238;1312;-53
2020/12/24 09:20:47;;;;;;;;;;;19.00;45.60;;;;;;491434;240;1135;-53
2020/12/24 09:22:48;;;;;;;;;;;19.00;45.60;;;;;;491576;240;1063;-53
2020/12/24 09:24:50;;;;;;;;;;;19.00;45.50;;;;;;491666;240;1194;-53
2020/12/24 09:26:51;;;;;;;;;;;19.10;45.30;;;;;;491616;240;1487;-53
2020/12/24 09:28:52;;;;;;;;;;;19.20;45.10;;;;;;491474;240;1413;-53
2020/12/24 09:30:54;;;;;;;;;;;19.20;45.10;;;;;;491720;240;2152;-53
2020/12/24 09:32:55;;;;;;;;;;;19.20;45.00;;;;;;491548;240;1053;-53
2020/12/24 09:34:56;;;;;;;;;;;19.20;44.90;;;;;;491605;240;1237;-53
2020/12/24 09:36:57;;;;;;;;;;;19.30;45.00;;;;;;491612;240;1157;-53
2020/12/24 09:38:59;;;;;;;;;;;19.30;45.00;;;;;;491590;240;1018;-53
2020/12/24 09:41:00;;;;;;;;;;;19.30;44.90;;;;;;491610;240;1024;-53
2020/12/24 09:43:01;;;;;;;;;;;19.30;45.00;;;;;;491549;240;1071;-53
2020/12/24 09:45:03;;;;;;;;;;;19.30;44.90;;;;;;491584;240;954;-53
2020/12/24 09:47:04;;;;;;;;;;;19.20;43.60;;;;;;491559;240;1268;-53
2020/12/24 09:49:05;;;;;;;;;;;19.30;45.00;;;;;;491710;240;1178;-53
2020/12/24 09:51:06;;;;;;;;;;;19.20;44.90;;;;;;491596;240;2171;-53
2020/12/24 09:53:08;;;;;;;;;;;19.20;44.80;;;;;;491804;240;1211;-52
2020/12/24 09:55:09;;;;;;;;;;;19.30;44.90;;;;;;491941;240;964;-52
2020/12/24 09:57:10;;;;;;;;;;;19.30;44.80;;;;;;491617;240;1334;-53
2020/12/24 09:59:11;;;;;;;;;;;19.30;44.90;;;;;;491578;240;1011;-53
2020/12/24 10:01:13;;;;;;;;;;;19.20;44.80;;;;;;491521;240;1074;-53
2020/12/24 10:03:14;;;;;;;;;;;19.20;44.90;;;;;;491491;240;1183;-53
2020/12/24 10:05:15;;;;;;;;;;;19.30;44.90;;;;;;491485;240;1222;-53
2020/12/24 10:07:16;;;;;;;;;;;19.20;44.90;;;;;;491511;240;1093;-52
2020/12/24 10:09:18;;;;;;;;;;;19.20;44.90;;;;;;491575;240;1052;-53
2020/12/24 10:11:20;;;;;;;;;;;19.20;44.90;;;;;;491379;240;2157;-53
2020/12/24 10:13:21;;;;;;;;;;;19.20;45.00;;;;;;491533;241;1425;-53
2020/12/24 10:15:22;;;;;;;;;;;19.20;45.00;;;;;;491467;240;1031;-53
2020/12/24 10:17:23;;;;;;;;;;;19.20;44.90;;;;;;491447;240;1296;-53
2020/12/24 10:19:25;;;;;;;;;;;19.20;44.90;;;;;;491538;240;1161;-53
2020/12/24 10:21:27;;;;;;;;;;;19.20;44.90;;;;;;491545;240;1047;-53
2020/12/24 10:23:27;;;;;;;;;;;19.20;44.90;;;;;;491666;241;2368;-52
2020/12/24 10:25:28;;;;;;;;;;;19.20;44.80;;;;;;491704;240;1197;-53
2020/12/24 10:27:30;;;;;;;;;;;19.20;43.60;;;;;;491475;240;1029;-53
2020/12/24 10:29:31;;;;;;;;;;;19.20;44.90;;;;;;491481;240;1025;-53
2020/12/24 10:31:32;;;;;;;;;;;19.20;44.90;;;;;;491659;240;2204;-53
2020/12/24 10:33:34;;;;;;;;;;;19.20;44.80;;;;;;491463;240;1055;-53
2020/12/24 10:35:36;;;;;;;;;;;19.20;44.80;;;;;;491484;240;1326;-53
2020/12/24 10:37:36;;;;;;;;;;;19.20;44.80;;;;;;491492;240;2233;-53
2020/12/24 10:39:37;;;;;;;;;;;19.20;44.80;;;;;;491559;240;1057;-52
2020/12/24 10:41:39;;;;;;;;;;;19.20;44.80;;;;;;491487;240;1319;-53
2020/12/24 10:43:40;;;;;;;;;;;19.20;44.80;;;;;;491531;240;1016;-53
2020/12/24 10:45:41;;;;;;;;;;;19.20;44.80;;;;;;491524;240;1401;-53
2020/12/24 10:47:42;;;;;;;;;;;19.20;44.70;;;;;;491603;240;1308;-53
2020/12/24 10:49:45;;;;;;;;;;;19.20;44.70;;;;;;491732;240;1154;-53
2020/12/24 10:51:45;;;;;;;;;;;19.20;44.70;;;;;;491520;240;2196;-53
2020/12/24 10:53:46;;;;;;;;;;;19.20;44.70;;;;;;491690;240;979;-53
2020/12/24 10:55:48;;;;;;;;;;;19.20;44.70;;;;;;491526;240;965;-52
2020/12/24 10:57:49;;;;;;;;;;;19.20;44.70;;;;;;491589;240;1146;-53
2020/12/24 10:59:50;;;;;;;;;;;19.20;44.70;;;;;;491643;240;1117;-54
2020/12/24 11:01:52;;;;;;;;;;;19.20;44.80;;;;;;491518;240;1204;-53
2020/12/24 11:03:53;;;;;;;;;;;19.10;44.80;;;;;;491737;240;1032;-53
2020/12/24 11:05:54;;;;;;;;;;;19.10;45.00;;;;;;491552;240;1155;-53
2020/12/24 11:07:55;;;;;;;;;;;19.10;45.10;;;;;;491517;240;964;-53
2020/12/24 11:09:57;;;;;;;;;;;19.00;45.00;;;;;;491850;240;966;-53
2020/12/24 11:11:58;;;;;;;;;;;19.00;45.10;;;;;;491589;240;2141;-53
2020/12/24 11:14:00;;;;;;;;;;;19.00;45.30;;;;;;491703;240;1008;-53
2020/12/24 11:16:01;;;;;;;;;;;18.90;45.30;;;;;;491636;240;1292;-53
2020/12/24 11:18:02;;;;;;;;;;;18.90;45.40;;;;;;491623;240;1037;-53
2020/12/24 11:20:03;;;;;;;;;;;18.90;45.40;;;;;;491837;240;1184;-53
2020/12/24 11:22:05;;;;;;;;;;;18.80;45.50;;;;;;491494;240;1333;-53
2020/12/24 11:24:06;;;;;;;;;;;18.80;45.60;;;;;;491646;240;1184;-53
2020/12/24 11:26:07;;;;;;;;;;;18.80;45.60;;;;;;491681;240;1066;-53
2020/12/24 11:28:08;;;;;;;;;;;18.70;45.70;;;;;;491922;240;1257;-52
2020/12/24 11:30:10;;;;;;;;;;;18.70;45.70;;;;;;491602;240;1053;-53
2020/12/24 11:32:11;;;;;;;;;;;18.70;45.80;;;;;;491636;240;2180;-53
2020/12/24 11:34:12;;;;;;;;;;;18.60;45.80;;;;;;491678;240;1078;-53
2020/12/24 11:36:14;;;;;;;;;;;18.60;45.90;;;;;;491599;240;1173;-52
2020/12/24 11:38:15;;;;;;;;;;;18.60;46.00;;;;;;491620;240;1314;-53
2020/12/24 11:40:16;;;;;;;;;;;18.50;46.00;;;;;;491629;240;1293;-53
2020/12/24 11:42:17;;;;;;;;;;;18.50;46.00;;;;;;491568;240;1036;-53
2020/12/24 11:44:19;;;;;;;;;;;18.50;46.10;;;;;;491671;240;1017;-53
2020/12/24 11:46:21;;;;;;;;;;;18.50;46.20;;;;;;491638;240;1192;-53
2020/12/24 11:48:22;;;;;;;;;;;18.50;46.20;;;;;;491658;240;1085;-53
2020/12/24 11:50:23;;;;;;;;;;;18.50;46.20;;;;;;491503;240;1228;-53
2020/12/24 11:52:24;;;;;;;;;;;18.50;46.30;;;;;;491553;240;2152;-53
2020/12/24 11:54:26;;;;;;;;;;;18.40;46.20;;;;;;492044;238;1254;-52
2020/12/24 11:56:27;;;;;;;;;;;18.40;46.30;;;;;;491752;240;1200;-53